Time;durP1;ratioP1;P1;durP2;ratioP2;P2;SDS_P1;SDS_P2;PMS_P1;PMS_P2;Temp;Humidity;BMP_temperature;BMP_pressure;BME280_temperature;BME280_humidity;BME280_pressure;Samples;Min_cycle;Max_cycle;Signal;HPM_P1;HPM_P2
2022/07/26 00:02:12;;;;;;;13.90;3.13;;;;;;;;;;5004109;28;20041;-61
2022/07/26 00:04:38;;;;;;;16.05;2.92;;;;;;;;;;5027485;28;20049;-62
2022/07/26 00:07:04;;;;;;;14.15;3.30;;;;;;;;;;5027971;28;20037;-61
2022/07/26 00:09:30;;;;;;;16.75;2.95;;;;;;;;;;5027893;28;20418;-61
2022/07/26 00:11:56;;;;;;;16.60;2.97;;;;;;;;;;5024501;28;20042;-61
2022/07/26 00:14:22;;;;;;;13.48;2.70;;;;;;;;;;5022044;28;20088;-62
2022/07/26 00:16:48;;;;;;;10.52;3.17;;;;;;;;;;5027241;28;20446;-61
2022/07/26 00:19:14;;;;;;;15.07;3.38;;;;;;;;;;5029404;28;20076;-61
2022/07/26 00:21:40;;;;;;;11.30;2.83;;;;;;;;;;5033806;28;20071;-61
2022/07/26 00:24:06;;;;;;;11.80;2.97;;;;;;;;;;5030639;28;20048;-61
2022/07/26 00:26:33;;;;;;;13.27;3.15;;;;;;;;;;5029818;28;20045;-61
2022/07/26 00:29:02;;;;;;;15.82;3.33;;;;;;;;;;5029463;28;20132;-61
2022/07/26 00:31:28;;;;;;;13.93;3.53;;;;;;;;;;5013901;28;20499;-62
2022/07/26 00:33:54;;;;;;;12.25;3.53;;;;;;;;;;5034213;28;20042;-61
2022/07/26 00:36:20;;;;;;;12.32;3.63;;;;;;;;;;5031855;28;20048;-61
2022/07/26 00:38:46;;;;;;;13.10;3.33;;;;;;;;;;5013391;28;20208;-61
2022/07/26 00:41:12;;;;;;;17.35;3.38;;;;;;;;;;5032077;28;20415;-62
2022/07/26 00:43:52;;;;;;;13.20;3.20;;;;;;;;;;5030330;28;20116;-62
2022/07/26 00:46:18;;;;;;;12.13;2.77;;;;;;;;;;5030204;28;20029;-61
2022/07/26 00:48:44;;;;;;;13.80;3.05;;;;;;;;;;5032278;28;20029;-61
2022/07/26 00:51:10;;;;;;;13.38;3.05;;;;;;;;;;5027779;28;20033;-62
2022/07/26 00:53:36;;;;;;;15.43;3.47;;;;;;;;;;5029394;28;20033;-62
2022/07/26 00:56:02;;;;;;;15.52;2.70;;;;;;;;;;5028715;28;20037;-61
2022/07/26 00:58:28;;;;;;;13.88;3.28;;;;;;;;;;5030336;28;20074;-61
2022/07/26 01:00:54;;;;;;;14.07;3.88;;;;;;;;;;5021750;28;20034;-63
2022/07/26 01:03:20;;;;;;;14.60;3.33;;;;;;;;;;5028890;28;20602;-62
2022/07/26 01:05:47;;;;;;;15.80;3.78;;;;;;;;;;5033293;28;20053;-61
2022/07/26 01:08:13;;;;;;;11.88;3.38;;;;;;;;;;5030810;28;20131;-61
2022/07/26 01:10:39;;;;;;;10.80;3.05;;;;;;;;;;5031462;28;20177;-62
2022/07/26 01:13:05;;;;;;;13.10;2.97;;;;;;;;;;5011686;28;20095;-62
2022/07/26 01:15:31;;;;;;;12.05;2.88;;;;;;;;;;5031832;28;20033;-62
2022/07/26 01:17:57;;;;;;;13.50;3.45;;;;;;;;;;5032565;28;20063;-62
2022/07/26 01:20:23;;;;;;;16.65;3.90;;;;;;;;;;5030656;28;20080;-62
2022/07/26 01:22:49;;;;;;;9.65;3.47;;;;;;;;;;5026741;28;20144;-62
2022/07/26 01:25:15;;;;;;;12.75;3.08;;;;;;;;;;5028823;28;20132;-62
2022/07/26 01:27:42;;;;;;;17.17;3.50;;;;;;;;;;5032628;28;20060;-62
2022/07/26 01:30:09;;;;;;;13.65;4.13;;;;;;;;;;5032256;28;20037;-62
2022/07/26 01:32:35;;;;;;;17.48;4.03;;;;;;;;;;5023302;28;20041;-61
2022/07/26 01:35:01;;;;;;;18.85;3.70;;;;;;;;;;5013329;28;20491;-62
2022/07/26 01:37:27;;;;;;;16.17;3.65;;;;;;;;;;5030585;28;20042;-62
2022/07/26 01:39:53;;;;;;;20.25;4.07;;;;;;;;;;5032520;28;20037;-62
2022/07/26 01:42:19;;;;;;;14.48;3.90;;;;;;;;;;5031376;28;20035;-62
2022/07/26 01:44:45;;;;;;;16.33;4.55;;;;;;;;;;5026668;28;20084;-62
2022/07/26 01:47:11;;;;;;;12.68;3.53;;;;;;;;;;5027118;28;20034;-62
2022/07/26 01:49:37;;;;;;;17.58;4.05;;;;;;;;;;5030548;28;20034;-62
2022/07/26 01:52:03;;;;;;;14.55;3.72;;;;;;;;;;5032522;28;20041;-62
2022/07/26 01:54:29;;;;;;;13.68;3.78;;;;;;;;;;5032756;28;20041;-61
2022/07/26 01:56:55;;;;;;;19.20;3.90;;;;;;;;;;5029980;28;20052;-62
2022/07/26 01:59:21;;;;;;;14.13;3.85;;;;;;;;;;5028956;28;20137;-62
2022/07/26 02:01:47;;;;;;;13.85;3.67;;;;;;;;;;5023339;28;20038;-62
2022/07/26 02:06:58;;;;;;;16.45;4.15;;;;;;;;;;5025469;28;20041;-61
2022/07/26 02:09:24;;;;;;;11.85;3.83;;;;;;;;;;5005316;28;20076;-62
2022/07/26 02:11:50;;;;;;;14.80;3.83;;;;;;;;;;5029180;28;20087;-62
2022/07/26 02:14:16;;;;;;;16.90;4.55;;;;;;;;;;5021869;28;20037;-62
2022/07/26 02:16:42;;;;;;;16.10;4.75;;;;;;;;;;5029349;28;20042;-61
2022/07/26 02:19:09;;;;;;;16.50;4.00;;;;;;;;;;5028532;28;20042;-62
2022/07/26 02:21:35;;;;;;;17.80;3.78;;;;;;;;;;5031069;28;20557;-62
2022/07/26 02:24:01;;;;;;;13.77;3.97;;;;;;;;;;5027504;28;20121;-62
2022/07/26 02:26:27;;;;;;;14.93;4.15;;;;;;;;;;5030427;28;20052;-62
2022/07/26 02:28:53;;;;;;;15.80;4.38;;;;;;;;;;5011604;28;20041;-62
2022/07/26 02:31:19;;;;;;;18.88;4.45;;;;;;;;;;5028851;28;20033;-62
2022/07/26 02:33:45;;;;;;;17.95;4.60;;;;;;;;;;5028718;28;20086;-62
2022/07/26 02:36:11;;;;;;;15.88;4.35;;;;;;;;;;5030279;28;20484;-62
2022/07/26 02:38:37;;;;;;;15.35;4.20;;;;;;;;;;5027938;28;20507;-62
2022/07/26 02:41:05;;;;;;;15.02;4.00;;;;;;;;;;5012551;28;20084;-62
2022/07/26 02:43:31;;;;;;;20.30;4.60;;;;;;;;;;5026965;28;20049;-62
2022/07/26 02:45:57;;;;;;;14.10;4.28;;;;;;;;;;5046138;22;20052;-65
2022/07/26 02:48:23;;;;;;;14.32;3.90;;;;;;;;;;5045528;28;20049;-66
2022/07/26 02:50:49;;;;;;;18.38;4.75;;;;;;;;;;5049991;28;20043;-66
2022/07/26 02:53:15;;;;;;;13.77;3.88;;;;;;;;;;5049665;28;20032;-66
2022/07/26 02:55:41;;;;;;;18.70;4.00;;;;;;;;;;5049736;28;20063;-65
2022/07/26 02:58:07;;;;;;;17.80;4.38;;;;;;;;;;5036289;28;20067;-65
2022/07/26 03:00:33;;;;;;;11.75;4.10;;;;;;;;;;5048128;28;20870;-65
2022/07/26 03:02:59;;;;;;;15.32;4.53;;;;;;;;;;5030587;28;20033;-65
2022/07/26 03:05:25;;;;;;;15.35;4.70;;;;;;;;;;5030267;28;20042;-65
2022/07/26 03:07:51;;;;;;;16.92;4.13;;;;;;;;;;5036196;28;20033;-65
2022/07/26 03:10:17;;;;;;;18.45;4.20;;;;;;;;;;5030628;28;20033;-66
2022/07/26 03:12:44;;;;;;;12.77;4.22;;;;;;;;;;5013936;28;20045;-65
2022/07/26 03:15:10;;;;;;;17.95;5.10;;;;;;;;;;5033763;28;20041;-66
2022/07/26 03:17:36;;;;;;;12.93;4.15;;;;;;;;;;5036827;28;20060;-65
2022/07/26 03:20:03;;;;;;;13.65;4.05;;;;;;;;;;5029937;28;20072;-65
2022/07/26 03:22:29;;;;;;;16.08;4.53;;;;;;;;;;5031811;28;20045;-66
2022/07/26 03:24:55;;;;;;;11.63;4.13;;;;;;;;;;5035452;28;20065;-66
2022/07/26 03:27:21;;;;;;;14.45;4.90;;;;;;;;;;5029885;28;20091;-65
2022/07/26 03:29:47;;;;;;;10.68;4.22;;;;;;;;;;5033932;28;20041;-65
2022/07/26 03:32:13;;;;;;;14.00;4.65;;;;;;;;;;5035890;28;20036;-65
2022/07/26 03:34:39;;;;;;;12.48;4.38;;;;;;;;;;5031109;28;20041;-65
2022/07/26 03:37:05;;;;;;;16.58;4.47;;;;;;;;;;5036020;28;20387;-66
2022/07/26 03:39:31;;;;;;;15.30;4.30;;;;;;;;;;5034955;28;20047;-65
2022/07/26 03:41:57;;;;;;;14.20;4.13;;;;;;;;;;5034177;28;20617;-66
2022/07/26 03:44:23;;;;;;;14.50;4.68;;;;;;;;;;5033381;28;20054;-65
2022/07/26 03:46:49;;;;;;;15.88;4.53;;;;;;;;;;5030050;28;20439;-66
2022/07/26 03:49:15;;;;;;;11.05;4.10;;;;;;;;;;5036260;28;20037;-66
2022/07/26 03:51:41;;;;;;;15.82;4.45;;;;;;;;;;5022279;28;20103;-66
2022/07/26 03:54:07;;;;;;;13.52;4.20;;;;;;;;;;5030742;28;20103;-66
2022/07/26 03:56:34;;;;;;;11.63;3.85;;;;;;;;;;5015211;28;20042;-66
2022/07/26 03:59:01;;;;;;;12.70;3.70;;;;;;;;;;5040107;28;20034;-66
2022/07/26 04:01:27;;;;;;;12.77;4.18;;;;;;;;;;5035543;28;20041;-66
2022/07/26 04:03:53;;;;;;;13.02;4.15;;;;;;;;;;5035917;28;20087;-66
2022/07/26 04:06:19;;;;;;;11.18;4.13;;;;;;;;;;5032729;28;20033;-66
2022/07/26 04:08:46;;;;;;;15.70;4.13;;;;;;;;;;5031824;28;20483;-64
2022/07/26 04:11:12;;;;;;;9.32;2.97;;;;;;;;;;5032494;28;20079;-65
2022/07/26 04:13:38;;;;;;;7.65;2.88;;;;;;;;;;5033867;28;20045;-65
2022/07/26 04:16:05;;;;;;;8.50;2.58;;;;;;;;;;5047821;28;20069;-66
2022/07/26 04:18:31;;;;;;;10.18;2.55;;;;;;;;;;5036365;28;20048;-66
2022/07/26 04:20:57;;;;;;;5.55;2.20;;;;;;;;;;5033550;28;20038;-66
2022/07/26 04:23:23;;;;;;;10.75;2.53;;;;;;;;;;5033130;28;20042;-65
2022/07/26 04:25:49;;;;;;;8.63;2.38;;;;;;;;;;5028966;28;20048;-65
2022/07/26 04:28:15;;;;;;;9.18;2.50;;;;;;;;;;5030130;28;20034;-65
2022/07/26 04:30:42;;;;;;;5.57;2.40;;;;;;;;;;5035171;28;20033;-66
2022/07/26 04:33:08;;;;;;;8.10;2.17;;;;;;;;;;5036693;28;20029;-65
2022/07/26 04:35:34;;;;;;;8.43;1.90;;;;;;;;;;5033227;28;20442;-65
2022/07/26 04:38:03;;;;;;;7.15;2.13;;;;;;;;;;5031867;28;20041;-65
2022/07/26 04:40:32;;;;;;;7.88;2.40;;;;;;;;;;5032794;28;20068;-65
2022/07/26 04:42:59;;;;;;;7.63;1.92;;;;;;;;;;5032244;28;20052;-65
2022/07/26 04:45:25;;;;;;;5.95;2.00;;;;;;;;;;5034421;28;20051;-65
2022/07/26 04:47:51;;;;;;;4.95;1.80;;;;;;;;;;5034853;28;20037;-65
2022/07/26 04:50:17;;;;;;;7.22;2.00;;;;;;;;;;5033823;28;20032;-65
2022/07/26 04:52:43;;;;;;;8.48;2.53;;;;;;;;;;5033802;28;20034;-65
2022/07/26 04:55:10;;;;;;;4.38;1.90;;;;;;;;;;5032892;28;20398;-65
2022/07/26 04:57:36;;;;;;;6.18;1.83;;;;;;;;;;5026850;28;20041;-65
2022/07/26 05:00:04;;;;;;;5.95;1.95;;;;;;;;;;5034637;28;20037;-65
2022/07/26 05:02:30;;;;;;;7.20;2.55;;;;;;;;;;5035730;28;20056;-65
2022/07/26 05:04:56;;;;;;;5.88;1.83;;;;;;;;;;5033942;28;20033;-65
2022/07/26 05:07:22;;;;;;;7.18;1.40;;;;;;;;;;5042535;28;20036;-65
2022/07/26 05:09:48;;;;;;;7.30;1.50;;;;;;;;;;5032042;28;20039;-65
2022/07/26 05:12:14;;;;;;;7.95;1.85;;;;;;;;;;5032016;28;20034;-65
2022/07/26 05:14:40;;;;;;;3.67;1.45;;;;;;;;;;5033389;28;20033;-65
2022/07/26 05:17:06;;;;;;;4.22;1.65;;;;;;;;;;5039278;28;20079;-65
2022/07/26 05:19:32;;;;;;;4.35;1.73;;;;;;;;;;5024338;28;20039;-65
2022/07/26 05:21:58;;;;;;;7.95;1.88;;;;;;;;;;5032634;28;20041;-65
2022/07/26 05:24:24;;;;;;;4.72;1.25;;;;;;;;;;5032181;28;20048;-64
2022/07/26 05:26:50;;;;;;;5.45;1.52;;;;;;;;;;5030095;28;20521;-64
2022/07/26 05:29:16;;;;;;;7.03;1.38;;;;;;;;;;5034943;28;20116;-65
2022/07/26 05:31:42;;;;;;;5.68;1.70;;;;;;;;;;5032592;28;20106;-65
2022/07/26 05:34:08;;;;;;;5.85;1.50;;;;;;;;;;5040522;28;20041;-65
2022/07/26 05:36:35;;;;;;;6.30;1.20;;;;;;;;;;5032254;28;20064;-65
2022/07/26 05:39:01;;;;;;;5.88;1.38;;;;;;;;;;5030745;28;20037;-64
2022/07/26 05:41:27;;;;;;;5.82;1.48;;;;;;;;;;5032905;28;20087;-64
2022/07/26 05:43:53;;;;;;;4.00;1.05;;;;;;;;;;5025055;28;20191;-65
2022/07/26 05:46:19;;;;;;;5.38;0.93;;;;;;;;;;5028598;28;20040;-64
2022/07/26 05:48:45;;;;;;;3.42;1.38;;;;;;;;;;5031243;28;20033;-64
2022/07/26 05:51:11;;;;;;;8.77;1.20;;;;;;;;;;5040612;28;20508;-65
2022/07/26 05:53:38;;;;;;;6.38;1.02;;;;;;;;;;5029926;28;20041;-64
2022/07/26 05:56:04;;;;;;;8.55;1.10;;;;;;;;;;5033921;28;20077;-64
2022/07/26 05:58:30;;;;;;;3.25;1.05;;;;;;;;;;5032924;28;20053;-64
2022/07/26 06:00:56;;;;;;;5.75;1.30;;;;;;;;;;5033373;28;20038;-64
2022/07/26 06:03:22;;;;;;;3.92;1.10;;;;;;;;;;5042291;28;20051;-64
2022/07/26 06:05:49;;;;;;;2.85;0.80;;;;;;;;;;5034051;28;20072;-64
2022/07/26 06:08:16;;;;;;;3.63;0.65;;;;;;;;;;5034111;28;20041;-64
2022/07/26 06:10:41;;;;;;;2.50;0.82;;;;;;;;;;5035607;28;20446;-64
2022/07/26 06:13:07;;;;;;;5.35;1.00;;;;;;;;;;5035978;28;20029;-64
2022/07/26 06:15:33;;;;;;;4.60;1.00;;;;;;;;;;5024915;28;20038;-64
2022/07/26 06:17:59;;;;;;;5.25;0.88;;;;;;;;;;5034811;28;20355;-64
2022/07/26 06:20:25;;;;;;;5.28;1.10;;;;;;;;;;5029495;28;20042;-64
2022/07/26 06:22:51;;;;;;;6.03;1.15;;;;;;;;;;5043615;28;20044;-64
2022/07/26 06:25:18;;;;;;;5.72;0.82;;;;;;;;;;5034286;28;20041;-64
2022/07/26 06:27:44;;;;;;;6.65;1.17;;;;;;;;;;5028373;28;20368;-65
2022/07/26 06:30:10;;;;;;;4.90;1.27;;;;;;;;;;5028354;28;20400;-64
2022/07/26 06:32:36;;;;;;;3.58;0.88;;;;;;;;;;5038653;28;20064;-64
2022/07/26 06:35:02;;;;;;;4.22;0.80;;;;;;;;;;5032642;28;20551;-64
2022/07/26 06:37:28;;;;;;;5.40;1.05;;;;;;;;;;5029891;28;20041;-64
2022/07/26 06:39:54;;;;;;;8.00;1.55;;;;;;;;;;5032158;28;20156;-64
2022/07/26 06:42:20;;;;;;;5.55;0.90;;;;;;;;;;5032369;28;20384;-64
2022/07/26 06:44:46;;;;;;;6.43;0.93;;;;;;;;;;5027409;28;20042;-64
2022/07/26 06:47:12;;;;;;;4.82;0.70;;;;;;;;;;5027372;28;20104;-65
2022/07/26 06:49:38;;;;;;;4.05;0.73;;;;;;;;;;5029895;28;20388;-65
2022/07/26 06:52:04;;;;;;;5.03;0.55;;;;;;;;;;5032170;28;20091;-65
2022/07/26 06:54:30;;;;;;;5.88;0.85;;;;;;;;;;5032140;28;20423;-65
2022/07/26 06:56:56;;;;;;;4.45;1.05;;;;;;;;;;5028921;28;20045;-65
2022/07/26 06:59:22;;;;;;;4.03;1.15;;;;;;;;;;5031915;28;20461;-65
2022/07/26 07:01:48;;;;;;;3.58;0.80;;;;;;;;;;5032687;28;20501;-65
2022/07/26 07:04:14;;;;;;;4.85;1.08;;;;;;;;;;5030269;28;20125;-65
2022/07/26 07:06:40;;;;;;;2.80;0.90;;;;;;;;;;5030120;28;20033;-65
2022/07/26 07:09:07;;;;;;;4.55;0.70;;;;;;;;;;5028694;28;20041;-65
2022/07/26 07:11:33;;;;;;;3.45;0.65;;;;;;;;;;5031172;28;20052;-65
2022/07/26 07:14:01;;;;;;;2.08;0.70;;;;;;;;;;5028969;28;20038;-65
2022/07/26 07:16:27;;;;;;;3.08;0.63;;;;;;;;;;5012875;28;20051;-65
2022/07/26 07:18:54;;;;;;;4.30;0.60;;;;;;;;;;5028626;28;20041;-64
2022/07/26 07:21:20;;;;;;;3.80;0.65;;;;;;;;;;5033561;28;20033;-65
2022/07/26 07:23:46;;;;;;;4.43;0.70;;;;;;;;;;5030939;28;20056;-64
2022/07/26 07:26:12;;;;;;;1.73;0.60;;;;;;;;;;5027078;28;20037;-65
2022/07/26 07:28:38;;;;;;;1.55;0.60;;;;;;;;;;5028760;28;20042;-64
2022/07/26 07:31:04;;;;;;;3.22;0.60;;;;;;;;;;5030676;28;21540;-65
2022/07/26 07:33:31;;;;;;;21.20;2.80;;;;;;;;;;5031515;28;20045;-64
2022/07/26 07:35:57;;;;;;;3.00;0.50;;;;;;;;;;5030848;28;20095;-64
2022/07/26 07:38:23;;;;;;;4.45;0.77;;;;;;;;;;5034301;28;20410;-65
2022/07/26 07:40:49;;;;;;;1.25;0.38;;;;;;;;;;5027394;28;20053;-65
2022/07/26 07:43:15;;;;;;;3.38;0.73;;;;;;;;;;5028356;28;20456;-64
2022/07/26 07:45:42;;;;;;;2.72;0.50;;;;;;;;;;5030551;28;20128;-64
2022/07/26 07:48:08;;;;;;;4.82;0.80;;;;;;;;;;5026946;28;20038;-64
2022/07/26 07:50:34;;;;;;;3.53;0.50;;;;;;;;;;5029800;28;20065;-64
2022/07/26 07:53:00;;;;;;;6.65;0.93;;;;;;;;;;5030127;28;20439;-64
2022/07/26 07:55:26;;;;;;;7.03;1.17;;;;;;;;;;5028451;28;20524;-64
2022/07/26 07:57:52;;;;;;;5.38;0.70;;;;;;;;;;5031442;28;20060;-64
2022/07/26 08:00:18;;;;;;;5.28;0.80;;;;;;;;;;5029740;28;20042;-64
2022/07/26 08:02:45;;;;;;;5.28;0.75;;;;;;;;;;5031575;28;20045;-65
2022/07/26 08:05:12;;;;;;;3.03;0.60;;;;;;;;;;5031482;28;20045;-64
2022/07/26 08:07:38;;;;;;;3.28;0.70;;;;;;;;;;5032282;28;20044;-64
2022/07/26 08:10:04;;;;;;;6.53;0.75;;;;;;;;;;5027516;28;20038;-64
2022/07/26 08:12:30;;;;;;;1.60;0.60;;;;;;;;;;5025237;28;20056;-63
2022/07/26 08:14:56;;;;;;;2.47;0.50;;;;;;;;;;5033002;28;20395;-64
2022/07/26 08:17:22;;;;;;;5.97;0.68;;;;;;;;;;5032893;28;20051;-64
2022/07/26 08:19:48;;;;;;;2.42;0.52;;;;;;;;;;5029514;28;20116;-64
2022/07/26 08:22:14;;;;;;;4.72;0.70;;;;;;;;;;5031929;28;20064;-64
2022/07/26 08:24:40;;;;;;;3.45;0.70;;;;;;;;;;5028458;28;20122;-65
2022/07/26 08:27:06;;;;;;;5.75;0.85;;;;;;;;;;5028313;28;20045;-65
2022/07/26 08:29:32;;;;;;;3.45;0.80;;;;;;;;;;5023972;28;20573;-65
2022/07/26 08:31:58;;;;;;;2.80;0.50;;;;;;;;;;5030612;28;20041;-64
2022/07/26 08:34:24;;;;;;;1.90;0.60;;;;;;;;;;5030595;28;20051;-64
2022/07/26 08:36:50;;;;;;;3.05;0.60;;;;;;;;;;5029494;28;20041;-64
2022/07/26 08:39:16;;;;;;;5.22;0.80;;;;;;;;;;5036169;28;20102;-64
2022/07/26 08:41:42;;;;;;;3.70;0.73;;;;;;;;;;5032794;28;20045;-64
2022/07/26 08:44:10;;;;;;;7.05;0.60;;;;;;;;;;5032861;28;20068;-64
2022/07/26 08:46:37;;;;;;;4.60;0.52;;;;;;;;;;5052400;22;20063;-63
2022/07/26 08:49:04;;;;;;;5.72;0.70;;;;;;;;;;5050419;28;20087;-63
2022/07/26 08:51:30;;;;;;;7.05;0.75;;;;;;;;;;5029160;28;20135;-63
2022/07/26 08:53:57;;;;;;;2.78;0.70;;;;;;;;;;5049275;28;20116;-63
2022/07/26 08:56:23;;;;;;;3.33;0.70;;;;;;;;;;5050495;28;20095;-63
2022/07/26 08:58:49;;;;;;;5.57;0.90;;;;;;;;;;5031272;28;20034;-63
2022/07/26 09:01:16;;;;;;;3.35;0.68;;;;;;;;;;5026849;28;20373;-63
2022/07/26 09:03:42;;;;;;;5.05;0.98;;;;;;;;;;5032211;28;20095;-62
2022/07/26 09:06:11;;;;;;;3.90;0.68;;;;;;;;;;5033160;28;20415;-63
2022/07/26 09:08:37;;;;;;;4.25;0.77;;;;;;;;;;5028749;28;20109;-63
2022/07/26 09:11:23;;;;;;;3.95;0.50;;;;;;;;;;5031753;28;20041;-62
2022/07/26 09:13:59;;;;;;;2.33;0.57;;;;;;;;;;5028009;28;20033;-62
2022/07/26 09:16:25;;;;;;;3.28;0.47;;;;;;;;;;5031928;28;20083;-62
2022/07/26 09:18:51;;;;;;;4.00;0.68;;;;;;;;;;5030794;28;20068;-62
2022/07/26 09:21:31;;;;;;;3.50;0.95;;;;;;;;;;5014113;28;20048;-62
2022/07/26 09:23:57;;;;;;;5.38;0.93;;;;;;;;;;5031237;28;20033;-62
2022/07/26 09:26:23;;;;;;;4.22;0.50;;;;;;;;;;5031146;28;20034;-62
2022/07/26 09:29:01;;;;;;;6.10;0.60;;;;;;;;;;5032304;28;20095;-62
2022/07/26 09:31:27;;;;;;;2.05;0.50;;;;;;;;;;5031704;28;20103;-62
2022/07/26 09:33:53;;;;;;;4.32;0.75;;;;;;;;;;5029692;28;20105;-62
2022/07/26 09:36:20;;;;;;;3.50;0.60;;;;;;;;;;5031291;28;20080;-62
2022/07/26 09:38:51;;;;;;;5.95;0.88;;;;;;;;;;5025450;28;20034;-62
2022/07/26 09:41:23;;;;;;;2.30;0.55;;;;;;;;;;5032931;28;20029;-62
2022/07/26 09:43:49;;;;;;;4.65;0.70;;;;;;;;;;5030152;28;20048;-62
2022/07/26 09:46:16;;;;;;;3.50;0.75;;;;;;;;;;5031065;28;20045;-62
2022/07/26 09:48:42;;;;;;;3.72;1.05;;;;;;;;;;5030808;28;20046;-62
2022/07/26 09:51:09;;;;;;;1.38;0.52;;;;;;;;;;5030290;28;20115;-62
2022/07/26 09:53:39;;;;;;;3.22;0.73;;;;;;;;;;5031503;28;20034;-62
2022/07/26 09:56:05;;;;;;;3.83;1.00;;;;;;;;;;5025750;28;20063;-61
2022/07/26 09:58:31;;;;;;;5.15;1.20;;;;;;;;;;5025704;28;20052;-62
2022/07/26 10:00:57;;;;;;;2.25;0.75;;;;;;;;;;5028941;28;20041;-62
2022/07/26 10:03:23;;;;;;;3.78;0.75;;;;;;;;;;5022926;28;20499;-62
2022/07/26 10:05:49;;;;;;;3.72;0.95;;;;;;;;;;5012436;28;20072;-62
2022/07/26 10:08:18;;;;;;;2.33;0.68;;;;;;;;;;5031033;28;20541;-62
2022/07/26 10:10:54;;;;;;;6.65;0.88;;;;;;;;;;5032110;28;20037;-62
2022/07/26 10:13:20;;;;;;;5.75;0.90;;;;;;;;;;5030788;28;20037;-62
2022/07/26 10:15:47;;;;;;;4.32;0.80;;;;;;;;;;5029945;28;20041;-62
2022/07/26 10:18:32;;;;;;;3.13;0.70;;;;;;;;;;5022745;28;20037;-62
2022/07/26 10:20:58;;;;;;;1.98;0.40;;;;;;;;;;5026209;28;20439;-62
2022/07/26 10:23:36;;;;;;;3.50;0.75;;;;;;;;;;5027399;28;20141;-62
2022/07/26 10:26:03;;;;;;;5.70;1.20;;;;;;;;;;5027415;28;20034;-62
2022/07/26 10:28:31;;;;;;;4.57;0.73;;;;;;;;;;5011979;28;20094;-62
2022/07/26 10:31:15;;;;;;;4.40;0.90;;;;;;;;;;5030467;28;20561;-62
2022/07/26 10:33:44;;;;;;;4.05;0.88;;;;;;;;;;5023304;28;20071;-61
2022/07/26 10:36:24;;;;;;;6.45;1.00;;;;;;;;;;5031139;28;20102;-62
2022/07/26 10:39:04;;;;;;;4.38;0.80;;;;;;;;;;5027235;28;20037;-61
2022/07/26 10:41:51;;;;;;;7.10;1.23;;;;;;;;;;5029375;28;20072;-61
2022/07/26 10:44:21;;;;;;;8.82;1.90;;;;;;;;;;5010077;28;20389;-62
2022/07/26 10:46:57;;;;;;;8.90;1.88;;;;;;;;;;5031080;28;20037;-61
2022/07/26 10:49:31;;;;;;;5.35;1.30;;;;;;;;;;5020145;28;20041;-61
2022/07/26 10:52:14;;;;;;;5.00;0.90;;;;;;;;;;5029286;28;20036;-61
2022/07/26 10:54:58;;;;;;;6.45;1.20;;;;;;;;;;5030866;28;20049;-61
2022/07/26 10:57:32;;;;;;;5.55;1.50;;;;;;;;;;5025375;28;20439;-62
2022/07/26 10:59:59;;;;;;;6.78;1.08;;;;;;;;;;5027256;28;20041;-61
2022/07/26 11:02:32;;;;;;;4.85;0.90;;;;;;;;;;5013829;28;20095;-62
2022/07/26 11:05:11;;;;;;;7.03;1.58;;;;;;;;;;5026032;28;20053;-62
2022/07/26 11:07:47;;;;;;;6.55;1.10;;;;;;;;;;5023782;28;20119;-62
2022/07/26 11:10:13;;;;;;;7.05;1.40;;;;;;;;;;5034601;28;20091;-62
2022/07/26 11:12:39;;;;;;;5.82;1.33;;;;;;;;;;5023672;28;20080;-61
2022/07/26 11:15:18;;;;;;;9.52;2.00;;;;;;;;;;5029629;28;20033;-62
2022/07/26 11:17:44;;;;;;;11.00;2.10;;;;;;;;;;5023707;28;20037;-62
2022/07/26 11:20:11;;;;;;;10.52;2.08;;;;;;;;;;5030138;28;20041;-62
2022/07/26 11:22:36;;;;;;;7.97;2.25;;;;;;;;;;5012072;28;20087;-62
2022/07/26 11:25:03;;;;;;;10.05;2.00;;;;;;;;;;5022338;28;20080;-62
2022/07/26 11:27:30;;;;;;;8.77;2.00;;;;;;;;;;5027877;28;20037;-62
2022/07/26 11:30:02;;;;;;;9.40;2.22;;;;;;;;;;5024207;28;20546;-62
2022/07/26 11:32:28;;;;;;;8.27;1.70;;;;;;;;;;5029327;28;20041;-62
2022/07/26 11:35:00;;;;;;;7.28;1.73;;;;;;;;;;5009455;28;20506;-62
2022/07/26 11:37:27;;;;;;;9.27;1.90;;;;;;;;;;5027531;28;20123;-62
2022/07/26 11:39:53;;;;;;;9.25;1.75;;;;;;;;;;5030209;28;20045;-62
2022/07/26 11:42:20;;;;;;;7.93;2.15;;;;;;;;;;5028828;28;20041;-62
2022/07/26 11:44:47;;;;;;;10.13;1.85;;;;;;;;;;5031229;28;20551;-63
2022/07/26 11:47:18;;;;;;;11.35;1.90;;;;;;;;;;5028692;28;20034;-62
2022/07/26 11:49:45;;;;;;;7.13;1.60;;;;;;;;;;5030008;28;20117;-62
2022/07/26 11:52:11;;;;;;;9.65;1.83;;;;;;;;;;5027485;28;20224;-62
2022/07/26 11:54:46;;;;;;;7.95;1.63;;;;;;;;;;5026655;28;20518;-62
2022/07/26 11:57:13;;;;;;;9.85;1.92;;;;;;;;;;5026756;28;20037;-62
2022/07/26 11:59:39;;;;;;;9.27;1.83;;;;;;;;;;5026820;28;20084;-62
2022/07/26 12:02:06;;;;;;;7.65;1.85;;;;;;;;;;5025119;28;20535;-62
2022/07/26 12:04:33;;;;;;;10.80;2.58;;;;;;;;;;5022534;28;20431;-63
2022/07/26 12:07:02;;;;;;;8.23;1.52;;;;;;;;;;5006175;28;20049;-62
2022/07/26 12:09:31;;;;;;;6.43;1.73;;;;;;;;;;5029770;28;20408;-62
2022/07/26 12:11:57;;;;;;;4.78;1.38;;;;;;;;;;5030686;28;20034;-62
2022/07/26 12:14:27;;;;;;;5.78;1.63;;;;;;;;;;5012310;28;20041;-62
2022/07/26 12:16:53;;;;;;;11.13;1.70;;;;;;;;;;5012113;28;20041;-62
2022/07/26 12:19:19;;;;;;;7.00;1.40;;;;;;;;;;5031089;28;20052;-63
2022/07/26 12:21:47;;;;;;;7.30;1.33;;;;;;;;;;5012245;28;20479;-62
2022/07/26 12:24:33;;;;;;;8.73;1.58;;;;;;;;;;5028810;28;20558;-62
2022/07/26 12:27:05;;;;;;;11.32;1.70;;;;;;;;;;5025574;28;20033;-62
2022/07/26 12:29:35;;;;;;;7.35;1.60;;;;;;;;;;5015644;28;20384;-62
2022/07/26 12:32:21;;;;;;;8.68;1.38;;;;;;;;;;5032640;28;20084;-63
2022/07/26 12:34:55;;;;;;;6.13;1.00;;;;;;;;;;5023553;28;20040;-62
2022/07/26 12:37:22;;;;;;;3.90;1.30;;;;;;;;;;5028799;28;20085;-62
2022/07/26 12:40:02;;;;;;;7.82;1.35;;;;;;;;;;5010668;28;20117;-62
2022/07/26 12:42:30;;;;;;;9.20;1.63;;;;;;;;;;5030986;28;20045;-62
2022/07/26 12:44:57;;;;;;;6.72;1.52;;;;;;;;;;5029665;28;20038;-62
2022/07/26 12:47:23;;;;;;;5.00;1.45;;;;;;;;;;5030934;28;20083;-61
2022/07/26 12:49:49;;;;;;;7.82;1.35;;;;;;;;;;5028306;28;20116;-62
2022/07/26 12:52:16;;;;;;;3.90;1.17;;;;;;;;;;5015064;28;20034;-62
2022/07/26 12:54:46;;;;;;;5.78;1.00;;;;;;;;;;5032339;28;20057;-62
2022/07/26 12:57:12;;;;;;;6.55;1.52;;;;;;;;;;5031121;28;20441;-62
2022/07/26 12:59:38;;;;;;;8.15;1.30;;;;;;;;;;5008741;28;20037;-62
2022/07/26 13:02:06;;;;;;;7.70;1.40;;;;;;;;;;5010224;28;20037;-62
2022/07/26 13:04:32;;;;;;;5.05;1.38;;;;;;;;;;5013951;28;20057;-62
2022/07/26 13:06:58;;;;;;;6.10;1.10;;;;;;;;;;5034171;28;20128;-62
2022/07/26 13:09:25;;;;;;;7.20;1.30;;;;;;;;;;5039492;28;20041;-62
2022/07/26 13:11:51;;;;;;;5.65;1.30;;;;;;;;;;5031656;28;20038;-62
2022/07/26 13:14:17;;;;;;;2.40;1.10;;;;;;;;;;5032254;28;20034;-62
2022/07/26 13:16:43;;;;;;;6.18;1.33;;;;;;;;;;5030881;28;20065;-62
2022/07/26 13:19:09;;;;;;;8.82;1.20;;;;;;;;;;5028743;28;20037;-62
2022/07/26 13:21:35;;;;;;;4.35;1.08;;;;;;;;;;5025922;28;20462;-62
2022/07/26 13:24:01;;;;;;;3.72;0.90;;;;;;;;;;5027980;28;20045;-62
2022/07/26 13:26:28;;;;;;;5.55;1.50;;;;;;;;;;5025007;28;20124;-62
2022/07/26 13:28:54;;;;;;;4.18;1.00;;;;;;;;;;5030027;28;20158;-62
2022/07/26 13:31:20;;;;;;;5.50;1.13;;;;;;;;;;5031991;28;20124;-62
2022/07/26 13:33:46;;;;;;;5.30;1.35;;;;;;;;;;5031047;28;20045;-62
2022/07/26 13:36:12;;;;;;;6.35;1.27;;;;;;;;;;5032091;28;20048;-62
2022/07/26 13:38:38;;;;;;;3.75;1.00;;;;;;;;;;5026142;28;20111;-62
2022/07/26 13:41:04;;;;;;;6.57;1.45;;;;;;;;;;5017628;28;20041;-62
2022/07/26 13:43:30;;;;;;;6.22;0.93;;;;;;;;;;5035478;28;20072;-62
2022/07/26 13:45:56;;;;;;;6.20;1.45;;;;;;;;;;5027039;28;20099;-62
2022/07/26 13:48:23;;;;;;;4.70;1.08;;;;;;;;;;5009775;28;20526;-62
2022/07/26 13:50:49;;;;;;;6.30;1.00;;;;;;;;;;5030534;28;20041;-62
2022/07/26 13:53:15;;;;;;;5.00;0.82;;;;;;;;;;5028200;28;21658;-62
2022/07/26 13:55:41;;;;;;;4.72;1.05;;;;;;;;;;5026491;28;20045;-62
2022/07/26 13:58:07;;;;;;;3.92;0.77;;;;;;;;;;5028097;28;20554;-62
2022/07/26 14:00:33;;;;;;;6.70;1.20;;;;;;;;;;5030624;28;20095;-63
2022/07/26 14:02:59;;;;;;;4.28;1.05;;;;;;;;;;5029087;28;20045;-62
2022/07/26 14:05:26;;;;;;;3.58;1.30;;;;;;;;;;5030261;28;20400;-62
2022/07/26 14:07:53;;;;;;;5.45;1.10;;;;;;;;;;5028724;28;20045;-62
2022/07/26 14:10:19;;;;;;;4.38;1.00;;;;;;;;;;5012653;28;20045;-62
2022/07/26 14:12:46;;;;;;;4.15;1.15;;;;;;;;;;5031531;28;20042;-63
2022/07/26 14:15:12;;;;;;;3.03;0.90;;;;;;;;;;5031629;28;20050;-63
2022/07/26 14:17:38;;;;;;;6.57;1.10;;;;;;;;;;5032091;28;20099;-62
2022/07/26 14:20:05;;;;;;;3.45;1.00;;;;;;;;;;5024126;28;20060;-63
2022/07/26 14:22:31;;;;;;;5.78;1.10;;;;;;;;;;5024930;28;20633;-62
2022/07/26 14:24:57;;;;;;;6.60;1.33;;;;;;;;;;5031219;28;20220;-62
2022/07/26 14:27:23;;;;;;;3.95;1.17;;;;;;;;;;5031294;28;20041;-62
2022/07/26 14:29:49;;;;;;;5.72;0.90;;;;;;;;;;5031385;28;20121;-62
2022/07/26 14:32:15;;;;;;;8.88;1.20;;;;;;;;;;5021831;28;20073;-62
2022/07/26 14:34:41;;;;;;;5.65;1.00;;;;;;;;;;5027675;28;20077;-62
2022/07/26 14:37:08;;;;;;;5.80;0.82;;;;;;;;;;5031040;28;20037;-62
2022/07/26 14:39:34;;;;;;;5.15;1.20;;;;;;;;;;5031160;28;20087;-62
2022/07/26 14:42:03;;;;;;;5.10;0.82;;;;;;;;;;5022221;28;20057;-62